createdAt,value
2023-04-02T00:01:51.783Z,1.13
2023-04-02T00:04:39.107Z,1.00
2023-04-02T00:07:32.235Z,1.10
2023-04-02T00:10:32.271Z,1.35
2023-04-02T00:13:25.259Z,1.20
2023-04-02T00:16:17.060Z,1.08
2023-04-02T00:19:08.776Z,1.20
2023-04-02T00:21:58.040Z,1.15
2023-04-02T00:24:45.935Z,1.17
2023-04-02T00:27:33.125Z,1.00
2023-04-02T00:30:20.631Z,1.33
2023-04-02T00:33:15.729Z,1.10
2023-04-02T00:36:07.986Z,0.90
2023-04-02T00:39:02.507Z,1.15
2023-04-02T00:42:04.837Z,0.93
2023-04-02T00:47:43.654Z,1.10
2023-04-02T00:50:36.617Z,1.00
2023-04-02T00:53:32.131Z,0.90
2023-04-02T00:56:27.757Z,1.00
2023-04-02T00:59:29.961Z,0.80
2023-04-02T01:02:32.637Z,1.40
2023-04-02T01:08:31.432Z,1.38
2023-04-02T01:15:38.157Z,0.95
2023-04-02T01:18:40.617Z,1.10
2023-04-02T01:22:07.071Z,0.88
2023-04-02T01:24:58.362Z,1.00
2023-04-02T01:27:56.871Z,1.30
2023-04-02T01:30:48.428Z,1.02
2023-04-02T01:33:35.813Z,1.02
2023-04-02T01:36:37.941Z,1.05
2023-04-02T01:39:25.154Z,1.20
2023-04-02T01:42:39.564Z,1.17
2023-04-02T01:45:27.272Z,1.20
2023-04-02T01:48:30.215Z,1.20
2023-04-02T01:54:16.850Z,0.95
2023-04-02T01:57:07.773Z,1.27
2023-04-02T01:59:59.205Z,1.48
2023-04-02T02:02:51.594Z,1.30
2023-04-02T02:05:39.096Z,1.50
2023-04-02T02:08:34.734Z,1.73
2023-04-02T02:11:26.658Z,1.80
2023-04-02T02:14:24.958Z,2.25
2023-04-02T02:17:18.464Z,1.95
2023-04-02T02:20:12.936Z,1.77
2023-04-02T02:23:04.324Z,1.77
2023-04-02T02:25:51.803Z,2.00
2023-04-02T02:28:42.551Z,1.90
2023-04-02T02:31:34.240Z,2.20
2023-04-02T02:34:31.475Z,2.40
2023-04-02T02:37:24.813Z,2.08
2023-04-02T02:40:21.256Z,2.20
2023-04-02T02:43:14.724Z,2.05
2023-04-02T02:46:16.929Z,2.47
2023-04-02T02:49:06.198Z,2.00
2023-04-02T02:52:14.881Z,2.65
2023-04-02T02:55:21.212Z,2.28
2023-04-02T02:58:14.413Z,2.50
2023-04-02T03:01:08.934Z,2.00
2023-04-02T03:03:56.576Z,2.10
2023-04-02T03:06:45.850Z,1.60
2023-04-02T03:09:47.454Z,2.22
2023-04-02T03:12:40.733Z,2.20
2023-04-02T03:15:35.866Z,2.05
2023-04-02T03:18:57.246Z,1.80
2023-04-02T03:21:54.032Z,1.98
2023-04-02T03:25:01.904Z,2.10
2023-04-02T03:27:53.801Z,1.98
2023-04-02T03:30:59.768Z,1.70
2023-04-02T03:33:59.464Z,2.00
2023-04-02T03:37:16.986Z,2.00
2023-04-02T03:40:17.712Z,2.03
2023-04-02T03:43:16.810Z,1.83
2023-04-02T03:46:27.906Z,2.72
2023-04-02T03:49:46.903Z,1.83
2023-04-02T03:52:37.454Z,2.10
2023-04-02T03:55:29.098Z,2.58
2023-04-02T03:58:30.839Z,2.20
2023-04-02T04:01:27.535Z,2.50
2023-04-02T04:04:19.077Z,2.22
2023-04-02T04:07:11.893Z,2.20
2023-04-02T04:13:49.446Z,2.47
2023-04-02T04:16:47.931Z,2.60
2023-04-02T04:19:55.467Z,2.45
2023-04-02T04:22:42.806Z,3.20
2023-04-02T04:25:34.572Z,2.55
2023-04-02T04:29:09.864Z,2.50
2023-04-02T04:32:27.443Z,2.67
2023-04-02T04:35:34.126Z,2.30
2023-04-02T04:38:44.636Z,2.72
2023-04-02T04:41:39.350Z,2.78
2023-04-02T04:44:46.654Z,3.20
2023-04-02T04:47:38.508Z,2.92
2023-04-02T04:50:30.652Z,3.50
2023-04-02T04:53:21.978Z,3.45
2023-04-02T04:56:18.738Z,3.30
2023-04-02T04:59:27.310Z,3.38
2023-04-02T05:02:40.421Z,3.38
2023-04-02T05:08:30.579Z,3.42
2023-04-02T05:11:42.860Z,4.53
2023-04-02T05:14:50.315Z,3.97
2023-04-02T05:17:54.194Z,4.40
2023-04-02T05:20:54.579Z,4.03
2023-04-02T05:24:03.814Z,3.70
2023-04-02T05:27:04.105Z,3.92
2023-04-02T05:30:11.962Z,3.25
2023-04-02T05:33:37.100Z,3.60
2023-04-02T05:36:29.911Z,3.47
2023-04-02T05:39:40.351Z,3.72
2023-04-02T05:42:35.427Z,3.25
2023-04-02T05:45:49.654Z,3.15
2023-04-02T05:48:44.922Z,3.03
2023-04-02T05:51:50.895Z,2.80
2023-04-02T05:55:06.635Z,2.97
2023-04-02T06:04:32.292Z,2.92
2023-04-02T06:07:28.532Z,3.10
2023-04-02T06:10:24.923Z,3.30
2023-04-02T06:13:19.315Z,2.88
2023-04-02T06:16:07.478Z,3.03
2023-04-02T06:18:57.986Z,3.08
2023-04-02T06:21:49.793Z,2.20
2023-04-02T06:24:40.914Z,2.95
2023-04-02T06:27:31.138Z,2.80
2023-04-02T06:30:31.928Z,2.50
2023-04-02T06:33:19.044Z,2.85
2023-04-02T06:36:08.259Z,2.17
2023-04-02T06:39:06.748Z,2.50
2023-04-02T06:42:05.758Z,2.22
2023-04-02T06:44:55.439Z,2.20
2023-04-02T06:47:47.267Z,2.53
2023-04-02T06:51:16.856Z,2.00
2023-04-02T06:54:08.292Z,2.15
2023-04-02T06:56:58.867Z,2.25
2023-04-02T06:59:46.297Z,2.15
2023-04-02T07:02:47.248Z,2.08
2023-04-02T07:05:35.021Z,1.98
2023-04-02T07:08:23.700Z,2.30
2023-04-02T07:11:15.720Z,1.90
2023-04-02T07:14:03.138Z,1.30
2023-04-02T07:16:53.037Z,1.83
2023-04-02T07:19:40.380Z,2.30
2023-04-02T07:22:27.658Z,2.50
2023-04-02T07:25:14.871Z,1.85
2023-04-02T07:28:02.317Z,2.10
2023-04-02T07:30:51.434Z,2.17
2023-04-02T07:33:40.095Z,4.15
2023-04-02T07:36:30.754Z,2.38
2023-04-02T07:39:18.369Z,1.85
2023-04-02T07:42:08.063Z,1.58
2023-04-02T07:44:56.598Z,1.88
2023-04-02T07:47:43.779Z,2.03
2023-04-02T07:50:31.047Z,2.20
2023-04-02T07:53:34.020Z,1.48
2023-04-02T08:04:30.630Z,2.47
2023-04-02T08:07:21.044Z,2.67
2023-04-02T08:10:10.592Z,2.75
2023-04-02T08:12:57.736Z,1.45
2023-04-02T08:15:46.103Z,1.55
2023-04-02T08:18:34.524Z,1.70
2023-04-02T08:21:23.254Z,1.50
2023-04-02T08:24:20.659Z,1.45
2023-04-02T08:27:08.257Z,1.40
2023-04-02T08:29:57.707Z,1.27
2023-04-02T08:40:59.888Z,1.10
2023-04-02T09:14:38.625Z,0.98
2023-04-02T09:41:22.707Z,1.20
2023-04-02T09:44:24.655Z,1.50
2023-04-02T09:47:28.676Z,1.30
2023-04-02T09:50:22.244Z,1.35
2023-04-02T09:53:30.343Z,1.20
2023-04-02T09:56:27.034Z,1.23
2023-04-02T11:43:38.725Z,0.63
2023-04-02T11:59:37.944Z,0.90
2023-04-02T13:06:51.776Z,0.60
2023-04-02T13:42:59.881Z,0.60
2023-04-02T13:46:16.359Z,1.00
2023-04-02T13:57:43.523Z,0.60
2023-04-02T14:33:57.370Z,1.40
2023-04-02T14:37:13.769Z,1.27
2023-04-02T14:41:05.501Z,1.50
2023-04-02T15:08:58.552Z,2.00
2023-04-02T15:16:13.806Z,1.80
2023-04-02T15:19:02.087Z,1.95
2023-04-02T15:22:40.777Z,2.08
2023-04-02T15:29:45.311Z,2.03
2023-04-02T15:32:43.915Z,2.70
2023-04-02T15:36:38.369Z,3.10
2023-04-02T15:44:08.840Z,2.40
2023-04-02T15:51:58.982Z,2.75
2023-04-02T15:55:01.673Z,3.20
2023-04-02T16:16:34.966Z,3.20
2023-04-02T16:20:03.021Z,3.10
2023-04-02T16:23:12.042Z,3.65
2023-04-02T16:26:31.341Z,4.75
2023-04-02T16:29:53.932Z,3.08
2023-04-02T16:33:36.299Z,3.20
2023-04-02T16:36:49.111Z,3.00
2023-04-02T16:40:38.616Z,3.42
2023-04-02T16:43:48.043Z,2.72
2023-04-02T16:47:22.802Z,3.35
2023-04-02T16:50:42.270Z,3.67
2023-04-02T16:57:53.109Z,4.95
2023-04-02T17:20:00.377Z,9.43
2023-04-02T17:23:55.853Z,9.40
2023-04-02T17:36:19.152Z,7.03
2023-04-02T17:39:52.927Z,6.82
2023-04-02T17:47:43.003Z,6.90
2023-04-02T17:51:25.719Z,6.50
2023-04-02T18:00:39.821Z,6.40
2023-04-02T18:03:18.845Z,6.22
2023-04-02T18:06:22.340Z,5.60
2023-04-02T18:09:48.002Z,5.20
2023-04-02T18:12:59.841Z,5.05
2023-04-02T18:16:21.994Z,4.93
2023-04-02T18:19:45.590Z,5.00
2023-04-02T18:22:46.541Z,5.00
2023-04-02T18:26:09.624Z,5.22
2023-04-02T18:29:33.244Z,6.85
2023-04-02T18:36:52.389Z,5.82
2023-04-02T18:40:05.444Z,5.78
2023-04-02T18:46:13.938Z,6.25
2023-04-02T18:49:40.432Z,6.30
2023-04-02T18:52:30.659Z,6.50
2023-04-02T18:55:21.820Z,6.53
2023-04-02T18:58:22.895Z,7.15
2023-04-02T19:01:14.872Z,7.57
2023-04-02T19:04:11.450Z,7.50
2023-04-02T19:07:17.030Z,7.97
2023-04-02T19:10:21.545Z,8.13
2023-04-02T19:13:18.750Z,9.10
2023-04-02T19:16:17.956Z,8.50
2023-04-02T19:19:23.442Z,8.00
2023-04-02T19:22:44.985Z,7.90
2023-04-02T19:25:35.347Z,8.13
2023-04-02T19:28:34.863Z,7.93
2023-04-02T19:31:51.174Z,9.10
2023-04-02T19:34:45.569Z,8.60
2023-04-02T19:37:52.457Z,7.88
2023-04-02T19:40:39.931Z,9.48
2023-04-02T19:43:27.696Z,8.77
2023-04-02T19:46:16.882Z,9.57
2023-04-02T19:49:20.364Z,9.40
2023-04-02T19:52:09.871Z,10.00
2023-04-02T19:54:57.410Z,9.57
2023-04-02T19:57:45.113Z,9.13
2023-04-02T20:00:33.413Z,8.40
2023-04-02T20:03:23.834Z,8.07
2023-04-02T20:06:11.482Z,7.90
2023-04-02T20:09:01.270Z,7.05
2023-04-02T20:11:49.248Z,7.15
2023-04-02T20:14:39.129Z,6.57
2023-04-02T20:17:29.395Z,6.72
2023-04-02T20:20:17.312Z,8.50
2023-04-02T20:23:05.034Z,7.85
2023-04-02T20:25:59.371Z,6.88
2023-04-02T20:28:46.734Z,6.07
2023-04-02T20:31:36.944Z,6.07
2023-04-02T20:34:24.502Z,6.28
2023-04-02T20:37:12.553Z,6.03
2023-04-02T20:40:02.588Z,5.75
2023-04-02T20:42:53.336Z,6.22
2023-04-02T20:45:40.519Z,6.50
2023-04-02T20:48:31.133Z,6.22
2023-04-02T20:51:21.789Z,5.82
2023-04-02T20:54:08.994Z,5.85
2023-04-02T20:56:56.867Z,6.28
2023-04-02T20:59:44.184Z,5.93
2023-04-02T21:02:31.489Z,5.75
2023-04-02T21:05:21.344Z,6.43
2023-04-02T21:08:09.337Z,5.93
2023-04-02T21:11:08.786Z,6.47
2023-04-02T21:13:58.365Z,5.28
2023-04-02T21:16:45.765Z,5.97
2023-04-02T21:19:33.454Z,5.50
2023-04-02T21:22:21.347Z,4.80
2023-04-02T21:25:09.153Z,5.53
2023-04-02T21:27:56.451Z,4.93
2023-04-02T21:30:43.561Z,5.47
2023-04-02T21:33:31.840Z,5.60
2023-04-02T21:36:21.885Z,5.32
2023-04-02T21:39:17.917Z,5.30
2023-04-02T21:42:05.144Z,5.53
2023-04-02T21:44:53.348Z,5.32
2023-04-02T21:47:40.668Z,4.80
2023-04-02T21:50:28.434Z,4.95
2023-04-02T21:53:15.657Z,5.60
2023-04-02T21:56:04.820Z,5.13
2023-04-02T21:58:56.870Z,4.90
2023-04-02T22:01:52.789Z,5.07
2023-04-02T22:04:42.683Z,5.32
2023-04-02T22:07:32.342Z,5.03
2023-04-02T22:10:21.880Z,5.38
2023-04-02T22:13:09.108Z,5.15
2023-04-02T22:16:06.909Z,4.93
2023-04-02T22:18:55.775Z,5.43
2023-04-02T22:21:46.278Z,5.40
2023-04-02T22:24:33.490Z,4.93
2023-04-02T22:27:20.749Z,4.90
2023-04-02T22:30:08.866Z,5.32
2023-04-02T22:32:58.578Z,5.40
2023-04-02T22:35:49.544Z,5.13
2023-04-02T22:38:39.532Z,5.43
2023-04-02T22:41:32.718Z,5.07
2023-04-02T22:44:20.394Z,5.47
2023-04-02T22:47:08.661Z,5.05
2023-04-02T22:49:58.005Z,5.35
2023-04-02T22:52:48.116Z,5.50
2023-04-02T22:55:35.281Z,5.38
2023-04-02T22:58:22.727Z,5.63
2023-04-02T23:01:11.942Z,5.90
2023-04-02T23:03:59.590Z,4.72
2023-04-02T23:06:47.951Z,5.05
2023-04-02T23:09:37.692Z,5.35
2023-04-02T23:12:24.823Z,4.95
2023-04-02T23:15:12.474Z,4.63
2023-04-02T23:17:59.743Z,4.80
2023-04-02T23:20:49.925Z,5.03
2023-04-02T23:23:37.599Z,4.93
2023-04-02T23:26:38.900Z,5.20
2023-04-02T23:29:26.170Z,5.00
2023-04-02T23:32:13.291Z,5.07
2023-04-02T23:35:00.460Z,4.88
2023-04-02T23:37:49.717Z,5.18
2023-04-02T23:40:37.532Z,4.70
2023-04-02T23:43:27.970Z,5.60
2023-04-02T23:46:15.368Z,5.15
2023-04-02T23:49:03.280Z,4.97
2023-04-02T23:51:55.060Z,4.78
2023-04-02T23:54:42.682Z,4.40
2023-04-02T23:57:29.916Z,5.68
